Hosin, República Checa

8:41 PM CET en Febrero 01, 2015 (GMT +0100)
Hradiste WH1090 | Change Station
CLOSE
Current Station
Estación meteorológica personal
Location: Netolice, JIHOčESKý KRAJ
Altura: 1549 ft
Estaciones meteorológicas cercanas

Alt 1549 ft 49.07 °N, 14.19 °E | Updated 8 seconds ago

Mostly Cloudy
Muy nublado
33.4 ° F
Sensación térmica 33 ° F
N
0.0
Viento Variable Viento desde Norte
Gusts 1.6 mph

Hoy
Alta -- | Baja -- ° F
--% Posibilidad de precipitaciones
Ayer
Alta -- | Baja -- ° F
Precip. -- pul
7:33 AM 4:58 PM
Gibosa creciente, 96% visible
Presión 29.39 pul
Visibilidad 6.2 Millas
Nubes Baja 2400 ft
Nubes dispersas 5000 ft
Muy nublado 14000 ft
Vientos helados 33 ° F
Punto de rocío 21 ° F
Humedad 60%
Precipitaciones 0.00 pul
Espesor de la nieve No disponible.
UV 0 de una escala de 12
Polen No disponible.
Calidad del aire No disponible.
Flu Activity No disponible.
METAR LOWL 011920Z 26005KT 9999 FEW024 SCT050 BKN140 M00/M03 Q0995 NOSIG

More Conditions Fewer Conditions

Presión 29.39 pul
Visibilidad 6.2 Millas
Nubes Baja 2400 ft
Nubes dispersas 5000 ft
Muy nublado 14000 ft
Vientos helados 33 ° F
Punto de rocío 21 ° F
Humedad 60%
Precipitaciones 0.00 pul
Espesor de la nieve No disponible.
UV 0 de una escala de 12
Polen No disponible.
Calidad del aire No disponible.
Flu Activity No disponible.
METAR LOWL 011920Z 26005KT 9999 FEW024 SCT050 BKN140 M00/M03 Q0995 NOSIG

More Conditions Fewer Conditions

10-Day Weather Forecast

Almanac

Astronomía

Feb. 01, 2015 Salida Puesta
Hora real
Crepúsculo civil
Crepúsculo náutico
Crepúsculo astronómico
Luna
Horas de luz
Horas de luz
Tomorrow will be .
, % of the Moon is Illuminated

Extremos de hoy

Máximos del país Bajas del país

Community

WunderPhotos

Upload Photos

1,792,471 ¡fotos cargadas!

WunderBlogs® & News

Nearby

Calidad del aire

  Calidad del aire Índice AQ Contaminante
Not available.

Grosos de nieve

Estación Profundido Altura

Actividad de terremotos

Ciudad Distance Mag. Tiempo y dato
Magnitud mínima muestra es 2,5.

Temperaturas de aguas costeras

Lugar Temperatura

Estaciones meteorológicas cercanas